sensor_id;sensor_type;location;lat;lon;timestamp;P1;durP1;ratioP1;P2;durP2;ratioP2
33152;SDS011;19509;43.862;26.176;2023-09-19T00:02:16;0.50;;;0.50;;
33152;SDS011;19509;43.862;26.176;2023-09-19T00:04:42;0.50;;;0.50;;
33152;SDS011;19509;43.862;26.176;2023-09-19T00:07:08;0.43;;;0.43;;
33152;SDS011;19509;43.862;26.176;2023-09-19T00:09:34;0.40;;;0.40;;
33152;SDS011;19509;43.862;26.176;2023-09-19T00:12:05;0.53;;;0.53;;
33152;SDS011;19509;43.862;26.176;2023-09-19T00:14:32;0.50;;;0.50;;
33152;SDS011;19509;43.862;26.176;2023-09-19T00:17:03;0.50;;;0.50;;
33152;SDS011;19509;43.862;26.176;2023-09-19T00:19:34;0.50;;;0.50;;
33152;SDS011;19509;43.862;26.176;2023-09-19T00:22:00;0.40;;;0.40;;
33152;SDS011;19509;43.862;26.176;2023-09-19T00:24:26;0.47;;;0.47;;
33152;SDS011;19509;43.862;26.176;2023-09-19T00:26:53;0.40;;;0.40;;
33152;SDS011;19509;43.862;26.176;2023-09-19T00:29:19;0.50;;;0.50;;
33152;SDS011;19509;43.862;26.176;2023-09-19T00:31:44;0.47;;;0.47;;
33152;SDS011;19509;43.862;26.176;2023-09-19T00:34:10;0.50;;;0.50;;
33152;SDS011;19509;43.862;26.176;2023-09-19T00:36:36;0.50;;;0.50;;
33152;SDS011;19509;43.862;26.176;2023-09-19T00:39:04;0.60;;;0.60;;
33152;SDS011;19509;43.862;26.176;2023-09-19T00:41:31;0.50;;;0.50;;
33152;SDS011;19509;43.862;26.176;2023-09-19T00:43:57;0.50;;;0.50;;
33152;SDS011;19509;43.862;26.176;2023-09-19T00:46:24;0.60;;;0.60;;
33152;SDS011;19509;43.862;26.176;2023-09-19T00:48:50;0.50;;;0.50;;
33152;SDS011;19509;43.862;26.176;2023-09-19T00:51:16;0.50;;;0.50;;
33152;SDS011;19509;43.862;26.176;2023-09-19T00:53:46;0.50;;;0.50;;
33152;SDS011;19509;43.862;26.176;2023-09-19T00:56:12;0.50;;;0.50;;
33152;SDS011;19509;43.862;26.176;2023-09-19T00:58:39;0.40;;;0.40;;
33152;SDS011;19509;43.862;26.176;2023-09-19T01:01:05;0.53;;;0.53;;
33152;SDS011;19509;43.862;26.176;2023-09-19T01:03:32;0.40;;;0.40;;
33152;SDS011;19509;43.862;26.176;2023-09-19T01:06:01;0.50;;;0.50;;
33152;SDS011;19509;43.862;26.176;2023-09-19T01:08:27;0.50;;;0.50;;
33152;SDS011;19509;43.862;26.176;2023-09-19T01:11:04;0.50;;;0.50;;
33152;SDS011;19509;43.862;26.176;2023-09-19T01:13:41;0.40;;;0.40;;
33152;SDS011;19509;43.862;26.176;2023-09-19T01:16:20;0.50;;;0.50;;
33152;SDS011;19509;43.862;26.176;2023-09-19T01:22:07;0.40;;;0.40;;
33152;SDS011;19509;43.862;26.176;2023-09-19T01:29:46;0.50;;;0.50;;
33152;SDS011;19509;43.862;26.176;2023-09-19T01:32:17;0.50;;;0.50;;
33152;SDS011;19509;43.862;26.176;2023-09-19T01:34:47;0.53;;;0.53;;
33152;SDS011;19509;43.862;26.176;2023-09-19T01:37:14;0.50;;;0.50;;
33152;SDS011;19509;43.862;26.176;2023-09-19T01:39:45;0.50;;;0.50;;
33152;SDS011;19509;43.862;26.176;2023-09-19T01:47:48;0.50;;;0.50;;
33152;SDS011;19509;43.862;26.176;2023-09-19T01:55:47;0.50;;;0.50;;
33152;SDS011;19509;43.862;26.176;2023-09-19T02:00:54;0.50;;;0.50;;
33152;SDS011;19509;43.862;26.176;2023-09-19T02:03:23;0.40;;;0.40;;
33152;SDS011;19509;43.862;26.176;2023-09-19T02:05:50;0.60;;;0.60;;
33152;SDS011;19509;43.862;26.176;2023-09-19T02:08:19;0.50;;;0.50;;
33152;SDS011;19509;43.862;26.176;2023-09-19T02:10:46;0.60;;;0.60;;
33152;SDS011;19509;43.862;26.176;2023-09-19T02:13:17;0.50;;;0.50;;
33152;SDS011;19509;43.862;26.176;2023-09-19T02:15:47;0.53;;;0.53;;
33152;SDS011;19509;43.862;26.176;2023-09-19T02:18:13;0.50;;;0.50;;
33152;SDS011;19509;43.862;26.176;2023-09-19T02:20:42;0.50;;;0.50;;
33152;SDS011;19509;43.862;26.176;2023-09-19T02:23:08;0.50;;;0.50;;
33152;SDS011;19509;43.862;26.176;2023-09-19T02:25:34;0.50;;;0.50;;
33152;SDS011;19509;43.862;26.176;2023-09-19T02:28:05;0.60;;;0.60;;
33152;SDS011;19509;43.862;26.176;2023-09-19T02:30:31;0.50;;;0.50;;
33152;SDS011;19509;43.862;26.176;2023-09-19T02:32:58;0.50;;;0.50;;
33152;SDS011;19509;43.862;26.176;2023-09-19T02:35:26;0.50;;;0.50;;
33152;SDS011;19509;43.862;26.176;2023-09-19T02:37:53;0.40;;;0.40;;
33152;SDS011;19509;43.862;26.176;2023-09-19T02:40:18;0.50;;;0.50;;
33152;SDS011;19509;43.862;26.176;2023-09-19T02:42:46;0.50;;;0.50;;
33152;SDS011;19509;43.862;26.176;2023-09-19T02:45:15;0.40;;;0.40;;
33152;SDS011;19509;43.862;26.176;2023-09-19T02:47:44;0.50;;;0.50;;
33152;SDS011;19509;43.862;26.176;2023-09-19T02:50:10;0.50;;;0.50;;
33152;SDS011;19509;43.862;26.176;2023-09-19T02:52:42;0.50;;;0.50;;
33152;SDS011;19509;43.862;26.176;2023-09-19T02:55:14;0.50;;;0.50;;
33152;SDS011;19509;43.862;26.176;2023-09-19T02:57:45;0.60;;;0.60;;
33152;SDS011;19509;43.862;26.176;2023-09-19T03:00:12;0.40;;;0.40;;
33152;SDS011;19509;43.862;26.176;2023-09-19T03:02:37;0.50;;;0.50;;
33152;SDS011;19509;43.862;26.176;2023-09-19T03:05:05;0.53;;;0.53;;
33152;SDS011;19509;43.862;26.176;2023-09-19T03:07:32;0.60;;;0.60;;
33152;SDS011;19509;43.862;26.176;2023-09-19T03:09:57;0.50;;;0.50;;
33152;SDS011;19509;43.862;26.176;2023-09-19T03:12:23;0.50;;;0.50;;
33152;SDS011;19509;43.862;26.176;2023-09-19T03:14:49;0.50;;;0.50;;
33152;SDS011;19509;43.862;26.176;2023-09-19T03:17:15;0.50;;;0.50;;
33152;SDS011;19509;43.862;26.176;2023-09-19T03:19:41;0.60;;;0.60;;
33152;SDS011;19509;43.862;26.176;2023-09-19T03:22:07;0.53;;;0.53;;
33152;SDS011;19509;43.862;26.176;2023-09-19T03:24:32;0.60;;;0.60;;
33152;SDS011;19509;43.862;26.176;2023-09-19T03:27:00;0.60;;;0.60;;
33152;SDS011;19509;43.862;26.176;2023-09-19T03:29:26;0.60;;;0.60;;
33152;SDS011;19509;43.862;26.176;2023-09-19T03:31:52;0.60;;;0.60;;
33152;SDS011;19509;43.862;26.176;2023-09-19T03:34:19;0.60;;;0.60;;
33152;SDS011;19509;43.862;26.176;2023-09-19T03:36:45;0.60;;;0.60;;
33152;SDS011;19509;43.862;26.176;2023-09-19T03:39:11;0.50;;;0.50;;
33152;SDS011;19509;43.862;26.176;2023-09-19T03:41:37;0.50;;;0.50;;
33152;SDS011;19509;43.862;26.176;2023-09-19T03:44:02;0.50;;;0.50;;
33152;SDS011;19509;43.862;26.176;2023-09-19T03:46:28;0.50;;;0.50;;
33152;SDS011;19509;43.862;26.176;2023-09-19T03:48:55;0.60;;;0.60;;
33152;SDS011;19509;43.862;26.176;2023-09-19T03:51:20;0.50;;;0.50;;
33152;SDS011;19509;43.862;26.176;2023-09-19T03:53:47;0.60;;;0.60;;
33152;SDS011;19509;43.862;26.176;2023-09-19T03:56:14;0.70;;;0.70;;
33152;SDS011;19509;43.862;26.176;2023-09-19T03:58:40;0.50;;;0.50;;
33152;SDS011;19509;43.862;26.176;2023-09-19T04:01:06;0.50;;;0.50;;
33152;SDS011;19509;43.862;26.176;2023-09-19T04:03:32;0.50;;;0.50;;
33152;SDS011;19509;43.862;26.176;2023-09-19T04:06:14;0.60;;;0.60;;
33152;SDS011;19509;43.862;26.176;2023-09-19T04:08:41;0.60;;;0.60;;
33152;SDS011;19509;43.862;26.176;2023-09-19T04:11:06;0.70;;;0.70;;
33152;SDS011;19509;43.862;26.176;2023-09-19T04:13:32;0.57;;;0.57;;
33152;SDS011;19509;43.862;26.176;2023-09-19T04:15:58;0.60;;;0.60;;
33152;SDS011;19509;43.862;26.176;2023-09-19T04:18:23;0.60;;;0.60;;
33152;SDS011;19509;43.862;26.176;2023-09-19T04:20:49;0.50;;;0.50;;
33152;SDS011;19509;43.862;26.176;2023-09-19T04:23:15;0.60;;;0.60;;
33152;SDS011;19509;43.862;26.176;2023-09-19T04:25:41;0.57;;;0.57;;
33152;SDS011;19509;43.862;26.176;2023-09-19T04:28:07;0.50;;;0.50;;
33152;SDS011;19509;43.862;26.176;2023-09-19T04:30:35;0.60;;;0.60;;
33152;SDS011;19509;43.862;26.176;2023-09-19T04:33:01;0.50;;;0.50;;
33152;SDS011;19509;43.862;26.176;2023-09-19T04:35:26;0.60;;;0.60;;
33152;SDS011;19509;43.862;26.176;2023-09-19T04:37:54;0.60;;;0.60;;
33152;SDS011;19509;43.862;26.176;2023-09-19T04:40:19;0.60;;;0.60;;
33152;SDS011;19509;43.862;26.176;2023-09-19T04:42:45;0.60;;;0.60;;
33152;SDS011;19509;43.862;26.176;2023-09-19T04:45:21;0.50;;;0.50;;
33152;SDS011;19509;43.862;26.176;2023-09-19T04:47:47;0.60;;;0.60;;
33152;SDS011;19509;43.862;26.176;2023-09-19T04:50:13;0.50;;;0.50;;
33152;SDS011;19509;43.862;26.176;2023-09-19T04:52:41;0.57;;;0.57;;
33152;SDS011;19509;43.862;26.176;2023-09-19T04:55:15;0.60;;;0.60;;
33152;SDS011;19509;43.862;26.176;2023-09-19T04:57:43;0.40;;;0.40;;
33152;SDS011;19509;43.862;26.176;2023-09-19T05:00:10;0.50;;;0.50;;
33152;SDS011;19509;43.862;26.176;2023-09-19T05:02:38;0.50;;;0.50;;
33152;SDS011;19509;43.862;26.176;2023-09-19T05:05:05;0.50;;;0.50;;
33152;SDS011;19509;43.862;26.176;2023-09-19T05:07:32;0.50;;;0.50;;
33152;SDS011;19509;43.862;26.176;2023-09-19T05:09:59;0.50;;;0.50;;
33152;SDS011;19509;43.862;26.176;2023-09-19T05:12:26;0.50;;;0.50;;
33152;SDS011;19509;43.862;26.176;2023-09-19T05:14:52;0.40;;;0.40;;
33152;SDS011;19509;43.862;26.176;2023-09-19T05:17:18;0.60;;;0.60;;
33152;SDS011;19509;43.862;26.176;2023-09-19T05:19:44;0.50;;;0.50;;
33152;SDS011;19509;43.862;26.176;2023-09-19T05:22:11;0.50;;;0.50;;
33152;SDS011;19509;43.862;26.176;2023-09-19T05:24:37;0.50;;;0.50;;
33152;SDS011;19509;43.862;26.176;2023-09-19T05:27:04;0.50;;;0.50;;
33152;SDS011;19509;43.862;26.176;2023-09-19T05:29:32;0.50;;;0.50;;
33152;SDS011;19509;43.862;26.176;2023-09-19T05:31:58;0.50;;;0.50;;
33152;SDS011;19509;43.862;26.176;2023-09-19T05:34:24;0.50;;;0.50;;
33152;SDS011;19509;43.862;26.176;2023-09-19T05:36:53;0.50;;;0.50;;
33152;SDS011;19509;43.862;26.176;2023-09-19T05:39:19;0.50;;;0.50;;
33152;SDS011;19509;43.862;26.176;2023-09-19T05:41:45;0.60;;;0.60;;
33152;SDS011;19509;43.862;26.176;2023-09-19T05:44:12;0.40;;;0.40;;
33152;SDS011;19509;43.862;26.176;2023-09-19T05:46:39;0.50;;;0.50;;
33152;SDS011;19509;43.862;26.176;2023-09-19T05:49:04;0.40;;;0.40;;
33152;SDS011;19509;43.862;26.176;2023-09-19T05:51:30;0.60;;;0.60;;
33152;SDS011;19509;43.862;26.176;2023-09-19T05:53:55;0.60;;;0.60;;
33152;SDS011;19509;43.862;26.176;2023-09-19T05:56:21;0.50;;;0.50;;
33152;SDS011;19509;43.862;26.176;2023-09-19T05:58:47;0.50;;;0.50;;
33152;SDS011;19509;43.862;26.176;2023-09-19T06:01:12;0.50;;;0.50;;
33152;SDS011;19509;43.862;26.176;2023-09-19T06:03:38;0.50;;;0.50;;
33152;SDS011;19509;43.862;26.176;2023-09-19T06:06:04;0.50;;;0.50;;
33152;SDS011;19509;43.862;26.176;2023-09-19T06:08:34;0.40;;;0.40;;
33152;SDS011;19509;43.862;26.176;2023-09-19T06:11:00;0.50;;;0.50;;
33152;SDS011;19509;43.862;26.176;2023-09-19T06:13:27;0.43;;;0.43;;
33152;SDS011;19509;43.862;26.176;2023-09-19T06:15:54;0.50;;;0.50;;
33152;SDS011;19509;43.862;26.176;2023-09-19T06:18:21;0.40;;;0.40;;
33152;SDS011;19509;43.862;26.176;2023-09-19T06:20:47;0.40;;;0.40;;
33152;SDS011;19509;43.862;26.176;2023-09-19T06:23:13;0.43;;;0.43;;
33152;SDS011;19509;43.862;26.176;2023-09-19T06:25:40;0.50;;;0.50;;
33152;SDS011;19509;43.862;26.176;2023-09-19T06:28:05;0.50;;;0.50;;
33152;SDS011;19509;43.862;26.176;2023-09-19T06:30:33;0.40;;;0.40;;
33152;SDS011;19509;43.862;26.176;2023-09-19T06:33:00;0.50;;;0.50;;
33152;SDS011;19509;43.862;26.176;2023-09-19T06:35:25;0.40;;;0.40;;
33152;SDS011;19509;43.862;26.176;2023-09-19T06:37:52;0.40;;;0.40;;
33152;SDS011;19509;43.862;26.176;2023-09-19T06:40:18;0.30;;;0.30;;
33152;SDS011;19509;43.862;26.176;2023-09-19T06:42:45;0.47;;;0.47;;
33152;SDS011;19509;43.862;26.176;2023-09-19T06:45:16;0.40;;;0.40;;
33152;SDS011;19509;43.862;26.176;2023-09-19T06:47:45;0.73;;;0.50;;
33152;SDS011;19509;43.862;26.176;2023-09-19T06:50:14;0.40;;;0.40;;
33152;SDS011;19509;43.862;26.176;2023-09-19T06:52:40;0.40;;;0.40;;
33152;SDS011;19509;43.862;26.176;2023-09-19T06:55:06;0.30;;;0.30;;
33152;SDS011;19509;43.862;26.176;2023-09-19T06:57:32;0.40;;;0.40;;
33152;SDS011;19509;43.862;26.176;2023-09-19T06:59:57;0.30;;;0.30;;
33152;SDS011;19509;43.862;26.176;2023-09-19T07:02:23;0.40;;;0.40;;
33152;SDS011;19509;43.862;26.176;2023-09-19T07:04:48;0.47;;;0.47;;
33152;SDS011;19509;43.862;26.176;2023-09-19T07:07:15;0.40;;;0.40;;
33152;SDS011;19509;43.862;26.176;2023-09-19T07:09:41;0.50;;;0.50;;
33152;SDS011;19509;43.862;26.176;2023-09-19T07:12:07;0.40;;;0.40;;
33152;SDS011;19509;43.862;26.176;2023-09-19T07:14:33;0.40;;;0.40;;
33152;SDS011;19509;43.862;26.176;2023-09-19T07:16:59;0.40;;;0.40;;
33152;SDS011;19509;43.862;26.176;2023-09-19T07:19:28;0.40;;;0.40;;
33152;SDS011;19509;43.862;26.176;2023-09-19T07:21:55;0.37;;;0.37;;
33152;SDS011;19509;43.862;26.176;2023-09-19T07:24:20;0.40;;;0.40;;
33152;SDS011;19509;43.862;26.176;2023-09-19T07:26:49;0.40;;;0.40;;
33152;SDS011;19509;43.862;26.176;2023-09-19T07:29:15;0.40;;;0.40;;
33152;SDS011;19509;43.862;26.176;2023-09-19T07:31:40;0.40;;;0.40;;
33152;SDS011;19509;43.862;26.176;2023-09-19T07:34:06;0.40;;;0.40;;
33152;SDS011;19509;43.862;26.176;2023-09-19T07:36:34;0.40;;;0.40;;
33152;SDS011;19509;43.862;26.176;2023-09-19T07:38:59;0.40;;;0.40;;
33152;SDS011;19509;43.862;26.176;2023-09-19T07:41:25;0.30;;;0.30;;
33152;SDS011;19509;43.862;26.176;2023-09-19T07:43:51;0.40;;;0.40;;
33152;SDS011;19509;43.862;26.176;2023-09-19T07:46:17;0.30;;;0.30;;
33152;SDS011;19509;43.862;26.176;2023-09-19T07:48:42;0.50;;;0.50;;
33152;SDS011;19509;43.862;26.176;2023-09-19T07:51:13;0.40;;;0.40;;
33152;SDS011;19509;43.862;26.176;2023-09-19T07:53:41;0.40;;;0.40;;
33152;SDS011;19509;43.862;26.176;2023-09-19T07:56:07;0.30;;;0.30;;
33152;SDS011;19509;43.862;26.176;2023-09-19T07:58:35;0.33;;;0.33;;
33152;SDS011;19509;43.862;26.176;2023-09-19T08:01:11;0.30;;;0.30;;
33152;SDS011;19509;43.862;26.176;2023-09-19T08:03:37;0.30;;;0.30;;
33152;SDS011;19509;43.862;26.176;2023-09-19T08:06:05;0.30;;;0.30;;
33152;SDS011;19509;43.862;26.176;2023-09-19T08:08:32;0.40;;;0.40;;
33152;SDS011;19509;43.862;26.176;2023-09-19T08:11:06;0.30;;;0.30;;
33152;SDS011;19509;43.862;26.176;2023-09-19T08:13:46;0.30;;;0.30;;
33152;SDS011;19509;43.862;26.176;2023-09-19T08:16:13;0.30;;;0.30;;
33152;SDS011;19509;43.862;26.176;2023-09-19T08:18:47;0.40;;;0.40;;
33152;SDS011;19509;43.862;26.176;2023-09-19T08:21:13;0.40;;;0.40;;
33152;SDS011;19509;43.862;26.176;2023-09-19T08:23:39;0.40;;;0.40;;
33152;SDS011;19509;43.862;26.176;2023-09-19T08:26:05;0.37;;;0.37;;
33152;SDS011;19509;43.862;26.176;2023-09-19T08:28:35;0.30;;;0.30;;
33152;SDS011;19509;43.862;26.176;2023-09-19T08:31:04;0.40;;;0.40;;
33152;SDS011;19509;43.862;26.176;2023-09-19T08:33:34;0.30;;;0.30;;
33152;SDS011;19509;43.862;26.176;2023-09-19T08:36:04;0.40;;;0.40;;
33152;SDS011;19509;43.862;26.176;2023-09-19T08:38:33;0.30;;;0.30;;
33152;SDS011;19509;43.862;26.176;2023-09-19T08:41:00;0.40;;;0.40;;
33152;SDS011;19509;43.862;26.176;2023-09-19T08:43:30;0.30;;;0.30;;
33152;SDS011;19509;43.862;26.176;2023-09-19T08:45:58;0.40;;;0.40;;
33152;SDS011;19509;43.862;26.176;2023-09-19T08:48:34;0.40;;;0.40;;
33152;SDS011;19509;43.862;26.176;2023-09-19T08:54:24;0.30;;;0.30;;
33152;SDS011;19509;43.862;26.176;2023-09-19T08:56:54;0.40;;;0.40;;
33152;SDS011;19509;43.862;26.176;2023-09-19T08:59:27;0.40;;;0.40;;
33152;SDS011;19509;43.862;26.176;2023-09-19T09:01:54;0.40;;;0.40;;
33152;SDS011;19509;43.862;26.176;2023-09-19T09:04:22;0.40;;;0.40;;
33152;SDS011;19509;43.862;26.176;2023-09-19T09:06:47;0.30;;;0.30;;
33152;SDS011;19509;43.862;26.176;2023-09-19T09:09:16;0.30;;;0.30;;
33152;SDS011;19509;43.862;26.176;2023-09-19T09:11:42;0.30;;;0.30;;
33152;SDS011;19509;43.862;26.176;2023-09-19T09:14:07;0.30;;;0.30;;
33152;SDS011;19509;43.862;26.176;2023-09-19T09:16:34;0.30;;;0.30;;
33152;SDS011;19509;43.862;26.176;2023-09-19T09:18:59;0.40;;;0.40;;
33152;SDS011;19509;43.862;26.176;2023-09-19T09:21:26;0.30;;;0.30;;
33152;SDS011;19509;43.862;26.176;2023-09-19T09:23:53;0.40;;;0.40;;
33152;SDS011;19509;43.862;26.176;2023-09-19T09:29:26;0.30;;;0.30;;
33152;SDS011;19509;43.862;26.176;2023-09-19T09:34:52;0.30;;;0.30;;
33152;SDS011;19509;43.862;26.176;2023-09-19T09:37:19;0.30;;;0.30;;
33152;SDS011;19509;43.862;26.176;2023-09-19T09:39:51;0.30;;;0.30;;
33152;SDS011;19509;43.862;26.176;2023-09-19T09:42:37;0.30;;;0.30;;
33152;SDS011;19509;43.862;26.176;2023-09-19T09:48:01;0.40;;;0.40;;
33152;SDS011;19509;43.862;26.176;2023-09-19T09:50:47;0.30;;;0.30;;
33152;SDS011;19509;43.862;26.176;2023-09-19T09:53:20;0.40;;;0.40;;
33152;SDS011;19509;43.862;26.176;2023-09-19T09:56:07;0.30;;;0.30;;
33152;SDS011;19509;43.862;26.176;2023-09-19T09:58:51;0.30;;;0.30;;
33152;SDS011;19509;43.862;26.176;2023-09-19T10:01:24;0.40;;;0.40;;
33152;SDS011;19509;43.862;26.176;2023-09-19T10:03:56;0.30;;;0.30;;
33152;SDS011;19509;43.862;26.176;2023-09-19T10:06:23;0.30;;;0.30;;
33152;SDS011;19509;43.862;26.176;2023-09-19T10:09:05;0.30;;;0.30;;
33152;SDS011;19509;43.862;26.176;2023-09-19T10:14:08;0.30;;;0.30;;
33152;SDS011;19509;43.862;26.176;2023-09-19T10:16:38;0.30;;;0.30;;
33152;SDS011;19509;43.862;26.176;2023-09-19T10:19:10;0.33;;;0.33;;
33152;SDS011;19509;43.862;26.176;2023-09-19T10:21:47;0.40;;;0.40;;
33152;SDS011;19509;43.862;26.176;2023-09-19T10:24:14;0.30;;;0.30;;
33152;SDS011;19509;43.862;26.176;2023-09-19T10:26:41;0.30;;;0.30;;
33152;SDS011;19509;43.862;26.176;2023-09-19T10:29:08;0.30;;;0.30;;
33152;SDS011;19509;43.862;26.176;2023-09-19T10:31:36;0.40;;;0.40;;
33152;SDS011;19509;43.862;26.176;2023-09-19T10:34:05;0.30;;;0.30;;
33152;SDS011;19509;43.862;26.176;2023-09-19T10:36:35;0.30;;;0.30;;
33152;SDS011;19509;43.862;26.176;2023-09-19T10:39:02;0.30;;;0.30;;
33152;SDS011;19509;43.862;26.176;2023-09-19T10:41:32;0.40;;;0.40;;
33152;SDS011;19509;43.862;26.176;2023-09-19T10:44:02;0.30;;;0.30;;
33152;SDS011;19509;43.862;26.176;2023-09-19T10:46:30;0.30;;;0.30;;
33152;SDS011;19509;43.862;26.176;2023-09-19T10:48:58;0.30;;;0.30;;
33152;SDS011;19509;43.862;26.176;2023-09-19T10:51:25;0.40;;;0.40;;
33152;SDS011;19509;43.862;26.176;2023-09-19T10:53:59;0.30;;;0.30;;
33152;SDS011;19509;43.862;26.176;2023-09-19T10:56:33;0.40;;;0.40;;
33152;SDS011;19509;43.862;26.176;2023-09-19T10:59:12;0.30;;;0.30;;
33152;SDS011;19509;43.862;26.176;2023-09-19T11:01:44;0.30;;;0.30;;
33152;SDS011;19509;43.862;26.176;2023-09-19T11:04:31;0.40;;;0.40;;
33152;SDS011;19509;43.862;26.176;2023-09-19T11:07:04;0.30;;;0.30;;
33152;SDS011;19509;43.862;26.176;2023-09-19T11:09:56;0.30;;;0.30;;
33152;SDS011;19509;43.862;26.176;2023-09-19T11:14:58;0.30;;;0.30;;
33152;SDS011;19509;43.862;26.176;2023-09-19T11:30:43;0.30;;;0.30;;
33152;SDS011;19509;43.862;26.176;2023-09-19T11:35:59;0.30;;;0.30;;
33152;SDS011;19509;43.862;26.176;2023-09-19T11:44:31;0.30;;;0.30;;
33152;SDS011;19509;43.862;26.176;2023-09-19T11:49:16;0.77;;;0.30;;
33152;SDS011;19509;43.862;26.176;2023-09-19T11:51:46;0.30;;;0.30;;
33152;SDS011;19509;43.862;26.176;2023-09-19T11:54:13;0.33;;;0.33;;
33152;SDS011;19509;43.862;26.176;2023-09-19T11:56:43;0.40;;;0.40;;
33152;SDS011;19509;43.862;26.176;2023-09-19T11:59:10;0.40;;;0.40;;
33152;SDS011;19509;43.862;26.176;2023-09-19T12:01:37;0.40;;;0.40;;
33152;SDS011;19509;43.862;26.176;2023-09-19T12:04:08;0.40;;;0.40;;
33152;SDS011;19509;43.862;26.176;2023-09-19T12:06:37;0.30;;;0.30;;
33152;SDS011;19509;43.862;26.176;2023-09-19T12:09:12;0.40;;;0.40;;
33152;SDS011;19509;43.862;26.176;2023-09-19T12:11:42;0.40;;;0.40;;
33152;SDS011;19509;43.862;26.176;2023-09-19T12:14:10;0.40;;;0.40;;
33152;SDS011;19509;43.862;26.176;2023-09-19T12:16:36;0.40;;;0.40;;
33152;SDS011;19509;43.862;26.176;2023-09-19T12:19:18;0.33;;;0.33;;
33152;SDS011;19509;43.862;26.176;2023-09-19T12:21:55;0.40;;;0.40;;
33152;SDS011;19509;43.862;26.176;2023-09-19T12:24:25;0.30;;;0.30;;
33152;SDS011;19509;43.862;26.176;2023-09-19T12:26:56;0.40;;;0.40;;
33152;SDS011;19509;43.862;26.176;2023-09-19T12:29:29;0.40;;;0.40;;
33152;SDS011;19509;43.862;26.176;2023-09-19T12:31:59;0.40;;;0.40;;
33152;SDS011;19509;43.862;26.176;2023-09-19T12:34:31;0.40;;;0.40;;
33152;SDS011;19509;43.862;26.176;2023-09-19T12:37:04;0.30;;;0.30;;
33152;SDS011;19509;43.862;26.176;2023-09-19T12:39:45;0.30;;;0.30;;
33152;SDS011;19509;43.862;26.176;2023-09-19T12:42:14;0.30;;;0.30;;
33152;SDS011;19509;43.862;26.176;2023-09-19T12:44:59;0.87;;;0.30;;
33152;SDS011;19509;43.862;26.176;2023-09-19T12:47:27;0.30;;;0.30;;
33152;SDS011;19509;43.862;26.176;2023-09-19T12:50:13;0.40;;;0.40;;
33152;SDS011;19509;43.862;26.176;2023-09-19T12:52:54;0.30;;;0.30;;
33152;SDS011;19509;43.862;26.176;2023-09-19T12:58:07;0.40;;;0.40;;
33152;SDS011;19509;43.862;26.176;2023-09-19T13:00:41;0.30;;;0.30;;
33152;SDS011;19509;43.862;26.176;2023-09-19T13:03:13;0.30;;;0.30;;
33152;SDS011;19509;43.862;26.176;2023-09-19T13:08:28;0.30;;;0.30;;
33152;SDS011;19509;43.862;26.176;2023-09-19T13:13:42;0.30;;;0.30;;
33152;SDS011;19509;43.862;26.176;2023-09-19T13:19:42;0.30;;;0.30;;
33152;SDS011;19509;43.862;26.176;2023-09-19T13:25:03;0.30;;;0.30;;
33152;SDS011;19509;43.862;26.176;2023-09-19T13:27:31;0.30;;;0.30;;
33152;SDS011;19509;43.862;26.176;2023-09-19T13:29:58;0.30;;;0.30;;
33152;SDS011;19509;43.862;26.176;2023-09-19T13:32:23;0.30;;;0.30;;
33152;SDS011;19509;43.862;26.176;2023-09-19T13:34:49;0.30;;;0.30;;
33152;SDS011;19509;43.862;26.176;2023-09-19T13:37:16;0.37;;;0.37;;
33152;SDS011;19509;43.862;26.176;2023-09-19T13:39:43;0.33;;;0.33;;
33152;SDS011;19509;43.862;26.176;2023-09-19T13:42:12;0.37;;;0.37;;
33152;SDS011;19509;43.862;26.176;2023-09-19T13:44:38;0.40;;;0.40;;
33152;SDS011;19509;43.862;26.176;2023-09-19T13:47:06;0.30;;;0.30;;
33152;SDS011;19509;43.862;26.176;2023-09-19T13:49:35;0.40;;;0.40;;
33152;SDS011;19509;43.862;26.176;2023-09-19T13:52:01;0.30;;;0.30;;
33152;SDS011;19509;43.862;26.176;2023-09-19T13:54:28;0.30;;;0.30;;
33152;SDS011;19509;43.862;26.176;2023-09-19T13:56:55;0.40;;;0.40;;
33152;SDS011;19509;43.862;26.176;2023-09-19T13:59:20;0.30;;;0.30;;
33152;SDS011;19509;43.862;26.176;2023-09-19T14:01:51;0.30;;;0.30;;
33152;SDS011;19509;43.862;26.176;2023-09-19T14:04:19;0.30;;;0.30;;
33152;SDS011;19509;43.862;26.176;2023-09-19T14:06:46;0.40;;;0.40;;
33152;SDS011;19509;43.862;26.176;2023-09-19T14:09:11;0.40;;;0.40;;
33152;SDS011;19509;43.862;26.176;2023-09-19T14:11:38;0.30;;;0.30;;
33152;SDS011;19509;43.862;26.176;2023-09-19T14:14:04;0.30;;;0.30;;
33152;SDS011;19509;43.862;26.176;2023-09-19T14:16:30;0.30;;;0.30;;
33152;SDS011;19509;43.862;26.176;2023-09-19T14:18:58;0.63;;;0.30;;
33152;SDS011;19509;43.862;26.176;2023-09-19T14:21:24;0.30;;;0.30;;
33152;SDS011;19509;43.862;26.176;2023-09-19T14:23:50;0.30;;;0.30;;
33152;SDS011;19509;43.862;26.176;2023-09-19T14:26:16;0.30;;;0.30;;
33152;SDS011;19509;43.862;26.176;2023-09-19T14:28:42;0.30;;;0.30;;
33152;SDS011;19509;43.862;26.176;2023-09-19T14:31:08;0.30;;;0.30;;
33152;SDS011;19509;43.862;26.176;2023-09-19T14:33:34;0.30;;;0.30;;
33152;SDS011;19509;43.862;26.176;2023-09-19T14:36:03;0.40;;;0.40;;
33152;SDS011;19509;43.862;26.176;2023-09-19T14:38:34;0.30;;;0.30;;
33152;SDS011;19509;43.862;26.176;2023-09-19T14:41:03;0.30;;;0.30;;
33152;SDS011;19509;43.862;26.176;2023-09-19T14:43:31;0.30;;;0.30;;
33152;SDS011;19509;43.862;26.176;2023-09-19T14:46:06;0.40;;;0.40;;
33152;SDS011;19509;43.862;26.176;2023-09-19T14:48:35;0.30;;;0.30;;
33152;SDS011;19509;43.862;26.176;2023-09-19T14:51:05;0.30;;;0.30;;
33152;SDS011;19509;43.862;26.176;2023-09-19T14:53:34;0.30;;;0.30;;
33152;SDS011;19509;43.862;26.176;2023-09-19T14:56:01;0.30;;;0.30;;
33152;SDS011;19509;43.862;26.176;2023-09-19T14:58:30;0.37;;;0.37;;
33152;SDS011;19509;43.862;26.176;2023-09-19T15:03:29;0.40;;;0.40;;
33152;SDS011;19509;43.862;26.176;2023-09-19T15:08:29;0.40;;;0.40;;
33152;SDS011;19509;43.862;26.176;2023-09-19T15:10:55;0.40;;;0.40;;
33152;SDS011;19509;43.862;26.176;2023-09-19T15:13:23;0.37;;;0.37;;
33152;SDS011;19509;43.862;26.176;2023-09-19T15:15:57;0.40;;;0.40;;
33152;SDS011;19509;43.862;26.176;2023-09-19T15:18:27;0.40;;;0.40;;
33152;SDS011;19509;43.862;26.176;2023-09-19T15:20:55;0.30;;;0.30;;
33152;SDS011;19509;43.862;26.176;2023-09-19T15:23:20;0.40;;;0.40;;
33152;SDS011;19509;43.862;26.176;2023-09-19T15:25:49;0.30;;;0.30;;
33152;SDS011;19509;43.862;26.176;2023-09-19T15:28:16;0.30;;;0.30;;
33152;SDS011;19509;43.862;26.176;2023-09-19T15:30:41;0.40;;;0.40;;
33152;SDS011;19509;43.862;26.176;2023-09-19T15:33:07;0.40;;;0.40;;
33152;SDS011;19509;43.862;26.176;2023-09-19T15:35:33;0.40;;;0.40;;
33152;SDS011;19509;43.862;26.176;2023-09-19T15:37:58;0.40;;;0.40;;
33152;SDS011;19509;43.862;26.176;2023-09-19T15:40:25;0.40;;;0.40;;
33152;SDS011;19509;43.862;26.176;2023-09-19T15:42:52;0.40;;;0.40;;
33152;SDS011;19509;43.862;26.176;2023-09-19T15:45:19;0.90;;;0.90;;
33152;SDS011;19509;43.862;26.176;2023-09-19T15:47:44;0.60;;;0.60;;
33152;SDS011;19509;43.862;26.176;2023-09-19T15:50:10;0.50;;;0.50;;
33152;SDS011;19509;43.862;26.176;2023-09-19T15:52:40;0.50;;;0.50;;
33152;SDS011;19509;43.862;26.176;2023-09-19T15:55:06;0.50;;;0.50;;
33152;SDS011;19509;43.862;26.176;2023-09-19T15:57:32;0.40;;;0.40;;
33152;SDS011;19509;43.862;26.176;2023-09-19T15:59:59;0.47;;;0.47;;
33152;SDS011;19509;43.862;26.176;2023-09-19T16:02:25;0.57;;;0.57;;
33152;SDS011;19509;43.862;26.176;2023-09-19T16:04:51;0.50;;;0.50;;